Time;durP1;ratioP1;P1;durP2;ratioP2;P2;SDS_P1;SDS_P2;PMS_P1;PMS_P2;Temp;Humidity;BMP_temperature;BMP_pressure;BME280_temperature;BME280_humidity;BME280_pressure;Samples;Min_cycle;Max_cycle;Signal;HPM_P1;HPM_P2
2022/08/20 00:01:23;;;;;;;0.20;0.20;;;19.70;99.90;;;;;;5032419;28;20046;-87
2022/08/20 00:03:49;;;;;;;0.20;0.20;;;19.60;99.90;;;;;;5033429;28;20045;-87
2022/08/20 00:06:19;;;;;;;0.20;0.20;;;19.60;99.90;;;;;;5019296;28;20041;-86
2022/08/20 00:08:49;;;;;;;0.10;0.10;;;19.70;99.90;;;;;;5021060;28;20440;-88
2022/08/20 00:11:21;;;;;;;0.20;0.20;;;19.60;99.90;;;;;;5015198;28;20076;-89
2022/08/20 00:13:50;;;;;;;0.20;0.20;;;19.60;99.90;;;;;;5015590;28;20140;-88
2022/08/20 00:16:18;;;;;;;0.20;0.20;;;19.60;99.90;;;;;;5032314;28;20038;-88
2022/08/20 00:18:44;;;;;;;0.10;0.10;;;19.60;99.90;;;;;;5015157;28;20053;-88
2022/08/20 00:21:13;;;;;;;0.20;0.20;;;19.60;99.90;;;;;;5015219;28;20053;-89
2022/08/20 00:23:40;;;;;;;0.20;0.20;;;19.60;99.90;;;;;;5032866;28;20076;-87
2022/08/20 00:26:07;;;;;;;0.20;0.20;;;19.60;99.90;;;;;;5016613;28;20121;-88
2022/08/20 00:28:32;;;;;;;0.20;0.20;;;19.60;99.90;;;;;;4996660;28;20514;-88
2022/08/20 00:30:58;;;;;;;0.20;0.20;;;19.60;99.90;;;;;;4993950;28;20084;-89
2022/08/20 00:33:24;;;;;;;0.20;0.20;;;19.50;99.90;;;;;;4992265;28;20540;-88
2022/08/20 00:35:55;;;;;;;0.20;0.20;;;19.50;99.90;;;;;;4992613;28;20058;-88
2022/08/20 00:38:21;;;;;;;0.20;0.20;;;19.50;99.90;;;;;;4992701;28;20048;-88
2022/08/20 00:40:56;;;;;;;0.20;0.20;;;19.50;99.90;;;;;;4993098;28;20046;-88
2022/08/20 00:44:08;;;;;;;0.20;0.20;;;19.50;99.90;;;;;;4991441;28;20091;-88
2022/08/20 00:46:35;;;;;;;0.20;0.20;;;19.50;99.90;;;;;;4992630;28;20057;-87
2022/08/20 00:49:04;;;;;;;0.20;0.20;;;19.40;99.90;;;;;;4992831;28;20038;-89
2022/08/20 00:51:33;;;;;;;0.20;0.20;;;19.50;99.90;;;;;;4993605;28;20058;-88
2022/08/20 00:54:22;;;;;;;0.15;0.15;;;19.40;99.90;;;;;;4995791;28;20050;-87
2022/08/20 00:57:06;;;;;;;0.10;0.10;;;19.40;99.90;;;;;;4994756;28;20046;-88
2022/08/20 00:59:34;;;;;;;0.20;0.20;;;19.40;99.90;;;;;;4997174;28;20050;-90
2022/08/20 01:02:00;;;;;;;0.20;0.20;;;19.40;99.90;;;;;;4995500;28;20524;-88
2022/08/20 01:04:28;;;;;;;0.20;0.20;;;19.40;99.90;;;;;;4994804;28;20101;-88
2022/08/20 01:06:54;;;;;;;0.20;0.20;;;19.30;99.90;;;;;;4998312;28;20046;-88
2022/08/20 01:09:21;;;;;;;0.20;0.20;;;19.30;99.90;;;;;;4996286;28;20042;-87
2022/08/20 01:11:47;;;;;;;0.20;0.20;;;19.30;99.90;;;;;;4995564;28;20050;-88
2022/08/20 01:14:43;;;;;;;0.10;0.10;;;19.30;99.90;;;;;;4995454;28;20402;-87
2022/08/20 01:17:05;;;;;;;0.20;0.20;;;19.10;99.90;;;;;;4995581;28;20418;-87
2022/08/20 01:19:38;;;;;;;0.20;0.20;;;19.20;99.90;;;;;;4995048;28;20050;-89
2022/08/20 01:23:25;;;;;;;0.20;0.20;;;19.20;99.90;;;;;;4996708;28;20450;-86
2022/08/20 01:25:02;;;;;;;0.20;0.20;;;19.20;99.90;;;;;;4995049;28;20402;-87
2022/08/20 01:27:31;;;;;;;0.20;0.20;;;19.20;99.90;;;;;;5025354;28;20049;-88
2022/08/20 01:29:58;;;;;;;0.20;0.20;;;19.10;99.90;;;;;;5059721;28;20114;-87
2022/08/20 01:32:24;;;;;;;0.20;0.20;;;19.20;99.90;;;;;;5026512;28;20505;-87
2022/08/20 01:34:49;;;;;;;0.20;0.20;;;19.10;99.90;;;;;;5018200;28;20052;-88
2022/08/20 01:37:15;;;;;;;0.20;0.20;;;19.10;99.90;;;;;;5035951;28;20045;-88
2022/08/20 01:39:41;;;;;;;0.20;0.20;;;19.10;99.90;;;;;;5035078;28;20045;-88
2022/08/20 01:42:29;;;;;;;0.20;0.20;;;19.10;99.90;;;;;;5017623;28;20041;-87
2022/08/20 01:44:54;;;;;;;0.20;0.20;;;19.10;99.90;;;;;;5041743;28;20037;-88
2022/08/20 01:47:26;;;;;;;0.20;0.20;;;19.00;99.90;;;;;;5019862;28;20053;-89
2022/08/20 01:49:59;;;;;;;0.20;0.20;;;19.00;99.90;;;;;;5039204;28;20050;-86
2022/08/20 01:52:30;;;;;;;0.20;0.20;;;19.00;99.90;;;;;;5043719;28;20375;-88
2022/08/20 01:54:56;;;;;;;0.10;0.10;;;19.00;99.90;;;;;;5016106;28;20042;-88
2022/08/20 01:57:25;;;;;;;0.20;0.20;;;19.00;99.90;;;;;;5035401;28;20041;-88
2022/08/20 01:59:52;;;;;;;0.20;0.20;;;19.00;99.90;;;;;;5034805;28;20042;-89
2022/08/20 02:02:17;;;;;;;0.10;0.10;;;18.90;99.90;;;;;;5017461;28;20052;-88
2022/08/20 02:04:43;;;;;;;0.20;0.20;;;18.90;99.90;;;;;;5017313;28;20116;-87
2022/08/20 02:07:15;;;;;;;0.20;0.20;;;18.80;99.90;;;;;;5034894;28;20569;-87
2022/08/20 02:09:41;;;;;;;0.20;0.20;;;18.80;99.90;;;;;;5034815;28;20053;-87
2022/08/20 02:12:09;;;;;;;0.20;0.20;;;18.80;99.90;;;;;;5017236;28;20426;-88
2022/08/20 02:14:50;;;;;;;0.13;0.13;;;18.70;99.90;;;;;;5017252;28;20056;-89
2022/08/20 02:17:17;;;;;;;0.20;0.20;;;18.70;99.90;;;;;;5017382;28;20048;-87
2022/08/20 02:19:56;;;;;;;0.20;0.20;;;18.70;99.90;;;;;;5035089;28;20053;-88
2022/08/20 02:22:30;;;;;;;0.20;0.20;;;18.70;99.90;;;;;;5034340;28;20129;-88
2022/08/20 02:24:56;;;;;;;0.20;0.20;;;18.60;99.90;;;;;;5034077;28;20049;-88
2022/08/20 02:27:22;;;;;;;0.20;0.20;;;18.60;99.90;;;;;;5034743;28;20382;-88
2022/08/20 02:29:48;;;;;;;0.20;0.20;;;18.60;99.90;;;;;;5016756;28;20560;-89
2022/08/20 02:32:14;;;;;;;0.10;0.10;;;18.50;99.90;;;;;;5035336;28;20042;-87
2022/08/20 02:34:40;;;;;;;0.10;0.10;;;18.50;99.90;;;;;;5034959;28;20095;-87
2022/08/20 02:37:06;;;;;;;0.20;0.20;;;18.50;99.90;;;;;;5034030;28;20048;-87
2022/08/20 02:39:32;;;;;;;0.20;0.20;;;18.50;99.90;;;;;;5016245;28;20099;-87
2022/08/20 02:41:58;;;;;;;0.15;0.15;;;18.40;99.90;;;;;;5016049;28;20042;-88
2022/08/20 02:44:24;;;;;;;0.20;0.20;;;18.40;99.90;;;;;;5016528;28;20052;-88
2022/08/20 02:46:49;;;;;;;0.20;0.20;;;18.40;99.90;;;;;;5034170;28;20146;-87
2022/08/20 02:49:17;;;;;;;0.20;0.20;;;18.40;99.90;;;;;;5033817;28;20501;-87
2022/08/20 02:51:44;;;;;;;0.20;0.20;;;18.30;99.90;;;;;;5034526;28;20521;-87
2022/08/20 02:54:11;;;;;;;0.10;0.10;;;18.20;99.90;;;;;;5016716;28;20072;-87
2022/08/20 02:56:37;;;;;;;0.20;0.20;;;18.20;99.90;;;;;;5015728;28;20045;-88
2022/08/20 02:59:03;;;;;;;0.20;0.20;;;18.20;99.90;;;;;;5019984;28;20042;-86
2022/08/20 03:01:30;;;;;;;0.10;0.10;;;18.10;99.90;;;;;;5055960;28;20050;-86
2022/08/20 03:03:57;;;;;;;0.20;0.20;;;18.10;99.90;;;;;;5048177;28;20060;-86
2022/08/20 03:06:24;;;;;;;0.20;0.20;;;18.10;99.90;;;;;;5016078;28;20470;-88
2022/08/20 03:08:50;;;;;;;0.10;0.10;;;18.10;99.90;;;;;;5016452;28;20077;-89
2022/08/20 03:11:16;;;;;;;0.20;0.20;;;18.00;99.90;;;;;;5015437;28;20045;-88
2022/08/20 03:13:42;;;;;;;0.20;0.20;;;18.00;99.90;;;;;;5015721;28;20159;-87
2022/08/20 03:16:08;;;;;;;0.20;0.20;;;18.00;99.90;;;;;;5033911;28;20112;-88
2022/08/20 03:18:37;;;;;;;0.20;0.20;;;17.90;99.90;;;;;;5015512;28;20095;-86
2022/08/20 03:21:04;;;;;;;0.20;0.20;;;17.90;99.90;;;;;;5034232;28;20049;-86
2022/08/20 03:23:31;;;;;;;0.20;0.20;;;17.90;99.90;;;;;;5015688;28;20049;-88
2022/08/20 03:25:57;;;;;;;0.20;0.20;;;17.90;99.90;;;;;;5030818;28;20046;-87
2022/08/20 03:28:26;;;;;;;0.20;0.20;;;17.80;99.90;;;;;;4996283;28;20421;-88
2022/08/20 03:30:53;;;;;;;0.10;0.10;;;17.70;99.90;;;;;;4996650;28;20080;-87
2022/08/20 03:33:19;;;;;;;0.17;0.17;;;17.80;99.90;;;;;;4996371;28;20050;-87
2022/08/20 03:35:46;;;;;;;0.20;0.20;;;17.80;99.90;;;;;;5026737;28;20398;-87
2022/08/20 03:38:13;;;;;;;0.20;0.20;;;17.80;99.90;;;;;;4997500;28;20482;-89
2022/08/20 03:40:40;;;;;;;0.10;0.10;;;17.70;99.90;;;;;;5013188;28;20038;-88
2022/08/20 03:43:07;;;;;;;0.20;0.20;;;17.70;99.90;;;;;;5013977;28;20072;-88
2022/08/20 03:45:34;;;;;;;0.20;0.20;;;17.70;99.90;;;;;;5012677;28;20038;-87
2022/08/20 03:48:01;;;;;;;0.20;0.20;;;17.60;99.90;;;;;;5013975;28;20052;-89
2022/08/20 03:50:31;;;;;;;0.10;0.10;;;17.60;99.90;;;;;;4995674;28;20072;-87
2022/08/20 03:52:58;;;;;;;0.20;0.20;;;17.60;99.90;;;;;;5013536;28;20038;-89
2022/08/20 03:55:25;;;;;;;0.20;0.20;;;17.60;99.90;;;;;;4996002;28;20378;-87
2022/08/20 03:57:56;;;;;;;0.20;0.20;;;17.50;99.90;;;;;;5013962;28;20057;-87
2022/08/20 04:00:29;;;;;;;0.20;0.20;;;17.50;99.90;;;;;;5012390;28;20095;-87
2022/08/20 04:02:56;;;;;;;0.20;0.20;;;17.50;99.90;;;;;;4996103;28;20077;-89
2022/08/20 04:05:25;;;;;;;0.10;0.10;;;17.50;99.90;;;;;;5021185;28;20108;-87
2022/08/20 04:07:51;;;;;;;0.20;0.20;;;17.50;99.90;;;;;;5015479;28;20128;-88
2022/08/20 04:10:17;;;;;;;0.10;0.10;;;17.40;99.90;;;;;;5014705;28;20406;-88
2022/08/20 04:12:43;;;;;;;0.20;0.20;;;17.40;99.90;;;;;;5015700;28;20076;-87
2022/08/20 04:15:15;;;;;;;0.13;0.13;;;17.40;99.90;;;;;;5032220;28;20477;-89
2022/08/20 04:17:43;;;;;;;0.20;0.20;;;17.40;99.90;;;;;;5015807;28;20396;-89
2022/08/20 04:20:12;;;;;;;0.17;0.17;;;17.30;99.90;;;;;;5033163;28;20405;-87
2022/08/20 04:22:39;;;;;;;0.10;0.10;;;17.40;99.90;;;;;;5032508;28;20121;-88
2022/08/20 04:25:07;;;;;;;0.20;0.20;;;17.30;99.90;;;;;;5033599;28;20051;-87
2022/08/20 04:27:37;;;;;;;0.20;0.20;;;17.30;99.90;;;;;;5036103;28;20405;-88
2022/08/20 04:30:05;;;;;;;0.20;0.20;;;17.20;99.90;;;;;;5037179;28;20420;-87
2022/08/20 04:32:31;;;;;;;0.20;0.20;;;17.20;99.90;;;;;;5042733;28;20041;-87
2022/08/20 04:34:57;;;;;;;0.20;0.20;;;17.20;99.90;;;;;;5058985;28;20109;-88
2022/08/20 04:37:23;;;;;;;0.20;0.20;;;17.20;99.90;;;;;;5049480;28;20503;-87
2022/08/20 04:42:35;;;;;;;0.10;0.10;;;17.10;99.90;;;;;;5036431;28;20049;-88
2022/08/20 04:45:05;;;;;;;0.10;0.10;;;17.10;99.90;;;;;;5036710;28;20037;-88
2022/08/20 04:47:31;;;;;;;0.20;0.20;;;17.10;99.90;;;;;;5019216;28;20049;-86
2022/08/20 04:49:59;;;;;;;0.20;0.20;;;17.10;99.90;;;;;;5018355;28;20120;-87
2022/08/20 04:52:26;;;;;;;0.20;0.20;;;17.10;99.90;;;;;;5036667;28;20145;-88
2022/08/20 04:54:55;;;;;;;0.10;0.10;;;17.10;99.90;;;;;;5035939;28;20108;-88
2022/08/20 04:57:22;;;;;;;0.20;0.20;;;17.10;99.90;;;;;;5018374;28;20041;-87
2022/08/20 04:59:50;;;;;;;0.20;0.20;;;17.10;99.90;;;;;;5018891;28;20045;-88
2022/08/20 05:02:17;;;;;;;0.20;0.20;;;17.00;99.90;;;;;;5019021;28;20551;-88
2022/08/20 05:04:46;;;;;;;0.15;0.15;;;17.00;99.90;;;;;;5035980;28;20041;-87
2022/08/20 05:07:13;;;;;;;0.20;0.20;;;17.00;99.90;;;;;;5036979;28;20060;-87
2022/08/20 05:09:42;;;;;;;0.20;0.20;;;17.00;99.90;;;;;;5036382;28;20049;-88
2022/08/20 05:12:08;;;;;;;0.13;0.13;;;16.90;99.90;;;;;;5036103;28;20033;-89
2022/08/20 05:14:34;;;;;;;0.20;0.20;;;16.90;99.90;;;;;;5019004;28;20494;-88
2022/08/20 05:17:05;;;;;;;0.20;0.20;;;16.90;99.90;;;;;;5036400;28;20064;-89
2022/08/20 05:19:36;;;;;;;0.20;0.20;;;16.90;99.90;;;;;;5050270;28;20045;-87
2022/08/20 05:22:03;;;;;;;0.20;0.20;;;16.90;99.90;;;;;;5020374;28;20058;-89
2022/08/20 05:24:29;;;;;;;0.17;0.17;;;16.90;99.90;;;;;;5035051;28;20121;-86
2022/08/20 05:26:55;;;;;;;0.10;0.10;;;16.90;99.90;;;;;;5025527;28;20141;-88
2022/08/20 05:29:22;;;;;;;0.20;0.20;;;16.80;99.90;;;;;;4998995;28;20100;-89
2022/08/20 05:31:48;;;;;;;0.10;0.10;;;16.80;99.90;;;;;;5015980;28;20049;-89
2022/08/20 05:34:14;;;;;;;0.10;0.10;;;16.80;99.90;;;;;;5016320;28;20046;-87
2022/08/20 05:36:46;;;;;;;0.20;0.20;;;16.80;99.90;;;;;;5015412;28;20406;-89
2022/08/20 05:39:12;;;;;;;0.20;0.20;;;16.80;99.90;;;;;;4997578;28;20046;-89
2022/08/20 05:41:38;;;;;;;0.20;0.20;;;16.80;99.90;;;;;;4998150;28;20406;-88
2022/08/20 05:44:08;;;;;;;0.10;0.10;;;16.80;99.90;;;;;;5016101;28;20045;-89
2022/08/20 05:46:34;;;;;;;0.20;0.20;;;16.80;99.90;;;;;;5015153;28;20050;-88
2022/08/20 05:49:02;;;;;;;0.10;0.10;;;16.80;99.90;;;;;;5016329;28;20060;-88
2022/08/20 05:51:31;;;;;;;0.15;0.15;;;16.70;99.90;;;;;;5016073;28;20049;-89
2022/08/20 05:53:57;;;;;;;0.20;0.20;;;16.80;99.90;;;;;;4997894;28;20054;-88
2022/08/20 05:56:23;;;;;;;0.15;0.15;;;16.80;99.90;;;;;;4997730;28;20050;-89
2022/08/20 05:58:48;;;;;;;0.20;0.20;;;16.80;99.90;;;;;;5016812;28;20069;-90
2022/08/20 06:01:14;;;;;;;0.10;0.10;;;16.80;99.90;;;;;;4999464;28;20054;-87
2022/08/20 06:06:24;;;;;;;0.20;0.20;;;16.90;99.90;;;;;;5041768;28;20081;-87
2022/08/20 06:08:49;;;;;;;0.20;0.20;;;16.90;99.90;;;;;;5041108;28;20061;-88
2022/08/20 06:11:15;;;;;;;0.20;0.20;;;17.00;99.90;;;;;;5043178;28;20412;-88
2022/08/20 06:13:40;;;;;;;0.10;0.10;;;17.00;99.90;;;;;;5016938;28;20046;-88
2022/08/20 06:16:06;;;;;;;0.10;0.10;;;17.10;99.90;;;;;;5035566;28;20052;-89
2022/08/20 06:18:31;;;;;;;0.20;0.20;;;17.10;99.90;;;;;;5035606;28;20540;-89
2022/08/20 06:20:57;;;;;;;0.20;0.20;;;17.10;99.90;;;;;;5017261;28;20045;-88
2022/08/20 06:23:24;;;;;;;0.20;0.20;;;17.20;99.90;;;;;;5034630;28;20140;-89
2022/08/20 06:25:50;;;;;;;0.20;0.20;;;17.20;99.90;;;;;;5034693;28;20056;-89
2022/08/20 06:28:16;;;;;;;0.10;0.10;;;17.30;99.90;;;;;;5034066;28;20050;-88
2022/08/20 06:30:42;;;;;;;0.20;0.20;;;17.30;99.90;;;;;;5034892;28;20100;-89
2022/08/20 06:33:07;;;;;;;0.20;0.20;;;17.30;99.90;;;;;;5035335;28;20053;-89
2022/08/20 06:35:33;;;;;;;0.20;0.20;;;17.40;99.90;;;;;;5034448;28;20485;-88
2022/08/20 06:37:59;;;;;;;0.13;0.13;;;17.40;99.90;;;;;;5034808;28;20386;-89
2022/08/20 06:40:27;;;;;;;0.10;0.10;;;17.40;99.90;;;;;;5033905;28;20482;-88
2022/08/20 06:42:53;;;;;;;0.13;0.13;;;17.50;99.90;;;;;;5018244;28;20115;-89
2022/08/20 06:45:23;;;;;;;0.20;0.20;;;17.50;99.90;;;;;;5016935;28;20053;-89
2022/08/20 06:47:53;;;;;;;0.20;0.20;;;17.60;99.90;;;;;;5017078;28;20489;-87
2022/08/20 06:50:24;;;;;;;0.20;0.20;;;17.60;99.90;;;;;;5016040;28;20045;-87
2022/08/20 06:52:49;;;;;;;0.20;0.20;;;17.60;99.90;;;;;;5035070;28;20382;-88
2022/08/20 06:55:16;;;;;;;0.15;0.15;;;17.70;99.90;;;;;;5033177;28;20049;-88
2022/08/20 06:57:42;;;;;;;0.20;0.20;;;17.70;99.90;;;;;;5035248;28;20041;-90
2022/08/20 07:00:15;;;;;;;0.20;0.20;;;17.70;99.90;;;;;;5017456;28;20053;-90
2022/08/20 07:02:40;;;;;;;0.20;0.20;;;17.70;99.90;;;;;;5037083;28;20436;-88
2022/08/20 07:05:07;;;;;;;0.20;0.20;;;17.80;99.90;;;;;;5033036;28;20041;-89
2022/08/20 07:07:33;;;;;;;0.20;0.20;;;17.80;99.90;;;;;;5039731;28;20091;-90
2022/08/20 07:10:10;;;;;;;0.10;0.10;;;17.80;99.90;;;;;;5033296;28;20068;-89
2022/08/20 07:12:36;;;;;;;0.10;0.10;;;17.90;99.90;;;;;;5017326;28;20045;-88
2022/08/20 07:15:08;;;;;;;0.20;0.20;;;17.90;99.90;;;;;;5017261;28;20151;-89
2022/08/20 07:17:34;;;;;;;0.20;0.20;;;18.00;99.90;;;;;;5016429;28;20049;-88
2022/08/20 07:20:19;;;;;;;0.10;0.10;;;18.00;99.90;;;;;;5016427;28;20092;-88
2022/08/20 07:22:45;;;;;;;0.20;0.20;;;18.10;99.90;;;;;;5018028;28;20079;-87
2022/08/20 07:25:16;;;;;;;0.20;0.20;;;18.10;99.90;;;;;;5033235;28;20045;-88
2022/08/20 07:27:42;;;;;;;0.20;0.20;;;18.10;99.90;;;;;;5034459;28;20417;-89
2022/08/20 07:32:56;;;;;;;0.10;0.10;;;18.20;99.90;;;;;;5017304;28;20132;-90
2022/08/20 07:35:22;;;;;;;0.10;0.10;;;18.20;99.90;;;;;;5017291;28;20076;-89
2022/08/20 07:37:50;;;;;;;0.20;0.20;;;18.30;99.90;;;;;;5015785;28;20477;-87
2022/08/20 07:40:32;;;;;;;0.20;0.20;;;18.40;99.90;;;;;;5029617;28;20053;-88
2022/08/20 07:42:59;;;;;;;0.20;0.20;;;18.40;99.90;;;;;;5056496;28;20026;-90
2022/08/20 07:45:26;;;;;;;0.20;0.20;;;18.40;99.90;;;;;;5039342;28;20084;-88
2022/08/20 07:47:52;;;;;;;0.20;0.20;;;18.40;99.90;;;;;;5016073;28;20057;-88
2022/08/20 07:50:22;;;;;;;0.20;0.20;;;18.40;99.90;;;;;;5014728;28;20061;-87
2022/08/20 07:52:51;;;;;;;0.17;0.17;;;18.40;99.90;;;;;;5015433;28;20057;-88
2022/08/20 07:55:17;;;;;;;0.20;0.20;;;18.40;99.90;;;;;;5014942;28;20132;-88
2022/08/20 07:57:45;;;;;;;0.20;0.20;;;18.40;99.90;;;;;;5033264;28;20103;-88
2022/08/20 08:00:12;;;;;;;0.20;0.20;;;18.40;99.90;;;;;;5031721;28;20053;-88
2022/08/20 08:02:38;;;;;;;0.20;0.20;;;18.40;99.90;;;;;;5015480;28;20100;-87
2022/08/20 08:05:05;;;;;;;0.20;0.20;;;18.50;99.90;;;;;;5014816;28;20041;-86
2022/08/20 08:07:32;;;;;;;0.20;0.20;;;18.40;99.90;;;;;;5014553;28;20100;-86
2022/08/20 08:10:01;;;;;;;0.20;0.20;;;18.40;99.90;;;;;;5014071;28;20049;-87
2022/08/20 08:12:35;;;;;;;0.15;0.15;;;18.50;99.90;;;;;;5032666;28;20041;-88
2022/08/20 08:15:02;;;;;;;0.10;0.10;;;18.50;99.90;;;;;;5015497;28;20049;-86
2022/08/20 08:17:30;;;;;;;0.20;0.20;;;18.60;99.90;;;;;;5032751;28;20136;-86
2022/08/20 08:19:56;;;;;;;0.20;0.20;;;18.60;99.90;;;;;;5031838;28;20472;-87
2022/08/20 08:22:22;;;;;;;0.10;0.10;;;18.60;99.90;;;;;;5033065;28;20045;-87
2022/08/20 08:24:48;;;;;;;0.10;0.10;;;18.70;99.90;;;;;;5031616;28;20041;-91
2022/08/20 08:27:17;;;;;;;0.10;0.10;;;18.70;99.90;;;;;;5032312;28;20140;-87
2022/08/20 08:29:43;;;;;;;0.20;0.20;;;18.80;99.90;;;;;;5014966;28;20172;-87
2022/08/20 08:32:09;;;;;;;0.20;0.20;;;18.90;99.90;;;;;;5015188;28;20227;-87
2022/08/20 08:34:35;;;;;;;0.20;0.20;;;18.90;99.90;;;;;;5032164;28;20083;-88
2022/08/20 08:37:05;;;;;;;0.20;0.20;;;18.90;99.90;;;;;;5012315;28;20038;-90
2022/08/20 08:39:32;;;;;;;0.20;0.20;;;19.00;99.90;;;;;;4995407;28;20169;-87
2022/08/20 08:42:01;;;;;;;0.20;0.20;;;19.10;99.90;;;;;;5012001;28;20049;-85
2022/08/20 08:44:33;;;;;;;0.20;0.20;;;19.10;99.90;;;;;;5013175;28;20054;-86
2022/08/20 08:47:05;;;;;;;0.20;0.20;;;19.20;99.90;;;;;;5013201;28;20037;-87
2022/08/20 08:49:34;;;;;;;0.10;0.10;;;19.20;99.90;;;;;;5003288;28;20108;-86
2022/08/20 08:52:05;;;;;;;0.20;0.20;;;19.30;99.90;;;;;;4995511;28;20042;-85
2022/08/20 08:54:33;;;;;;;0.20;0.20;;;19.40;99.90;;;;;;5012277;28;20100;-89
2022/08/20 08:57:10;;;;;;;0.20;0.20;;;19.50;99.90;;;;;;4994991;28;20042;-91
2022/08/20 08:59:36;;;;;;;0.20;0.20;;;19.60;99.90;;;;;;4995514;28;20490;-90
2022/08/20 09:02:05;;;;;;;0.20;0.20;;;19.60;99.90;;;;;;5012402;28;20056;-85
2022/08/20 09:04:40;;;;;;;0.15;0.15;;;19.60;99.90;;;;;;5012382;28;20050;-86
2022/08/20 09:07:12;;;;;;;0.20;0.20;;;19.70;99.90;;;;;;5012645;28;20437;-85
2022/08/20 09:09:41;;;;;;;0.20;0.20;;;19.80;99.90;;;;;;4994607;28;20060;-85
2022/08/20 09:12:10;;;;;;;0.20;0.20;;;19.90;99.90;;;;;;5022179;28;20069;-85
2022/08/20 09:14:37;;;;;;;0.20;0.20;;;19.90;99.90;;;;;;5037065;28;20053;-85
2022/08/20 09:17:03;;;;;;;0.20;0.20;;;20.00;99.90;;;;;;5006290;28;20065;-88
2022/08/20 09:19:29;;;;;;;0.20;0.20;;;20.00;99.90;;;;;;5015677;28;20096;-84
2022/08/20 09:21:55;;;;;;;0.20;0.20;;;20.00;99.90;;;;;;4998547;28;20061;-85
2022/08/20 09:24:21;;;;;;;0.10;0.10;;;20.00;99.90;;;;;;4997447;28;20042;-87
2022/08/20 09:26:47;;;;;;;0.20;0.20;;;20.10;99.90;;;;;;4997404;28;20073;-85
2022/08/20 09:29:13;;;;;;;0.20;0.20;;;20.10;99.90;;;;;;5015992;28;20120;-86
2022/08/20 09:31:39;;;;;;;0.20;0.20;;;20.10;99.90;;;;;;5015035;28;20061;-86
2022/08/20 09:34:05;;;;;;;0.20;0.20;;;20.20;99.90;;;;;;4998791;28;20051;-88
2022/08/20 09:36:31;;;;;;;0.10;0.10;;;20.30;99.90;;;;;;5015449;28;20082;-85
2022/08/20 09:39:00;;;;;;;0.20;0.20;;;20.20;99.90;;;;;;4997561;28;20046;-86
2022/08/20 09:41:25;;;;;;;0.20;0.20;;;20.30;99.90;;;;;;4996890;28;20132;-85
2022/08/20 09:43:51;;;;;;;0.20;0.20;;;20.40;99.90;;;;;;4998246;28;20073;-85
2022/08/20 09:46:19;;;;;;;0.20;0.20;;;20.40;99.90;;;;;;5014507;28;20049;-86
2022/08/20 09:48:45;;;;;;;0.20;0.20;;;20.40;99.90;;;;;;5015547;28;20046;-85
2022/08/20 09:51:11;;;;;;;0.20;0.20;;;20.40;99.90;;;;;;5014334;28;20129;-85
2022/08/20 09:53:37;;;;;;;0.20;0.20;;;20.40;99.90;;;;;;4997631;28;20137;-85
2022/08/20 09:56:03;;;;;;;0.20;0.20;;;20.50;99.90;;;;;;4997233;28;20038;-87
2022/08/20 09:58:53;;;;;;;0.13;0.13;;;20.60;99.90;;;;;;5014322;28;20073;-86
2022/08/20 10:01:20;;;;;;;0.20;0.20;;;20.70;99.90;;;;;;5015205;28;20081;-85
2022/08/20 10:03:47;;;;;;;0.20;0.20;;;20.70;99.90;;;;;;4997528;28;20397;-87
2022/08/20 10:06:15;;;;;;;0.20;0.20;;;20.70;99.90;;;;;;5014281;28;20045;-86
2022/08/20 10:08:41;;;;;;;0.20;0.20;;;20.80;99.90;;;;;;5014780;28;20049;-86
2022/08/20 10:11:07;;;;;;;0.20;0.20;;;20.90;99.90;;;;;;4997441;28;20077;-87
2022/08/20 10:13:33;;;;;;;0.10;0.10;;;20.90;99.90;;;;;;5014734;28;20409;-87
2022/08/20 10:15:58;;;;;;;0.20;0.20;;;21.00;99.90;;;;;;4997391;28;20600;-86
2022/08/20 10:18:24;;;;;;;0.20;0.20;;;21.10;99.90;;;;;;4997111;28;20489;-87
2022/08/20 10:20:49;;;;;;;0.20;0.20;;;21.20;99.90;;;;;;5013992;28;20046;-87
2022/08/20 10:23:15;;;;;;;0.20;0.20;;;21.20;99.90;;;;;;5014092;28;20049;-89
2022/08/20 10:25:42;;;;;;;0.20;0.20;;;21.20;99.90;;;;;;5014353;28;20092;-88
2022/08/20 10:28:07;;;;;;;0.20;0.20;;;21.20;99.90;;;;;;4996846;28;20085;-86
2022/08/20 10:30:33;;;;;;;0.20;0.20;;;21.20;99.90;;;;;;5014565;28;20092;-86
2022/08/20 10:32:59;;;;;;;0.20;0.20;;;21.30;99.90;;;;;;5018001;28;20103;-86
2022/08/20 10:35:25;;;;;;;0.20;0.20;;;21.40;99.90;;;;;;4999372;28;20478;-86
2022/08/20 10:37:51;;;;;;;0.20;0.20;;;21.50;99.90;;;;;;5025401;28;20401;-86
2022/08/20 10:40:16;;;;;;;0.20;0.20;;;21.50;99.90;;;;;;5014584;28;20037;-86
2022/08/20 10:42:43;;;;;;;0.30;0.30;;;21.60;99.90;;;;;;5016936;28;20119;-88
2022/08/20 10:45:10;;;;;;;0.20;0.20;;;21.60;99.90;;;;;;5056677;28;20033;-89
2022/08/20 10:47:36;;;;;;;0.20;0.20;;;21.60;99.90;;;;;;5034322;28;20053;-86
2022/08/20 10:50:07;;;;;;;0.20;0.20;;;21.50;99.90;;;;;;5016863;28;20040;-88
2022/08/20 10:52:33;;;;;;;0.20;0.20;;;21.50;99.90;;;;;;5034571;28;20053;-89
2022/08/20 10:54:58;;;;;;;0.20;0.20;;;21.50;99.90;;;;;;5014447;28;20041;-88
2022/08/20 10:57:27;;;;;;;0.20;0.20;;;21.50;99.90;;;;;;5034593;28;20501;-88
2022/08/20 10:59:55;;;;;;;0.20;0.20;;;21.50;99.90;;;;;;5033702;28;20038;-86
2022/08/20 11:02:22;;;;;;;0.20;0.20;;;21.50;99.90;;;;;;5033337;28;20156;-87
2022/08/20 11:04:49;;;;;;;0.20;0.20;;;21.60;99.90;;;;;;5016315;28;20048;-86
2022/08/20 11:07:24;;;;;;;0.20;0.20;;;21.60;99.90;;;;;;5016367;28;20053;-87
2022/08/20 11:09:50;;;;;;;0.20;0.20;;;21.70;99.90;;;;;;5014341;28;20052;-87
2022/08/20 11:12:18;;;;;;;0.20;0.20;;;21.90;99.90;;;;;;5034641;28;20064;-90
2022/08/20 11:14:44;;;;;;;0.20;0.20;;;22.00;99.90;;;;;;5033598;28;20045;-86
2022/08/20 11:17:10;;;;;;;0.30;0.30;;;22.00;99.90;;;;;;5032926;28;20212;-88
2022/08/20 11:19:41;;;;;;;0.20;0.20;;;22.00;99.90;;;;;;5015845;28;20045;-87
2022/08/20 11:22:07;;;;;;;;;;;22.00;99.90;;;;;;5033785;28;20049;-85
2022/08/20 11:24:33;;;;;;;0.20;0.20;;;22.10;99.90;;;;;;5032453;28;19925;-87
2022/08/20 11:26:59;;;;;;;0.10;0.10;;;22.20;99.90;;;;;;5015200;28;20228;-87
2022/08/20 11:29:24;;;;;;;0.20;0.20;;;22.30;99.90;;;;;;5033495;28;20450;-87
2022/08/20 11:31:50;;;;;;;0.20;0.20;;;22.40;99.90;;;;;;5014789;28;20087;-86
2022/08/20 11:34:16;;;;;;;0.10;0.10;;;22.50;99.90;;;;;;5032680;28;20124;-86
2022/08/20 11:36:43;;;;;;;0.20;0.20;;;22.60;99.90;;;;;;5014575;28;20056;-86
2022/08/20 11:39:09;;;;;;;0.20;0.20;;;22.60;99.90;;;;;;5015067;28;20508;-86
2022/08/20 11:41:34;;;;;;;0.20;0.20;;;22.60;99.90;;;;;;5033193;28;20045;-88
2022/08/20 11:44:00;;;;;;;0.20;0.20;;;22.60;99.90;;;;;;5015620;28;20049;-86
2022/08/20 11:46:28;;;;;;;0.20;0.20;;;22.60;99.90;;;;;;5032903;28;20063;-86
2022/08/20 11:48:54;;;;;;;0.20;0.20;;;22.60;99.90;;;;;;5015353;28;20053;-85
2022/08/20 11:51:19;;;;;;;0.20;0.20;;;22.70;99.90;;;;;;5032276;28;20041;-87
2022/08/20 11:53:45;;;;;;;0.20;0.20;;;22.80;99.90;;;;;;5015142;28;20092;-89
2022/08/20 11:56:12;;;;;;;0.20;0.20;;;22.90;99.90;;;;;;5015106;28;20429;-87
2022/08/20 11:58:37;;;;;;;0.20;0.20;;;23.00;99.90;;;;;;5032334;28;20065;-85
2022/08/20 12:01:03;;;;;;;0.20;0.20;;;23.00;99.90;;;;;;5033082;28;20445;-86
2022/08/20 12:03:29;;;;;;;0.20;0.20;;;22.90;99.90;;;;;;5015118;28;20103;-87
2022/08/20 12:05:56;;;;;;;0.20;0.20;;;22.80;99.90;;;;;;5032204;28;20489;-86
2022/08/20 12:08:22;;;;;;;0.20;0.20;;;22.70;99.90;;;;;;5015779;28;20072;-88
2022/08/20 12:10:48;;;;;;;0.20;0.20;;;22.80;99.90;;;;;;5032982;28;20037;-89
2022/08/20 12:13:13;;;;;;;0.20;0.20;;;22.80;99.90;;;;;;5015747;28;20053;-89
2022/08/20 12:15:39;;;;;;;0.20;0.20;;;22.80;99.90;;;;;;5042571;28;20075;-85
2022/08/20 12:18:06;;;;;;;0.20;0.20;;;22.70;99.90;;;;;;5055073;28;20025;-86
2022/08/20 12:20:32;;;;;;;0.20;0.20;;;22.70;99.90;;;;;;5041035;28;20504;-86
2022/08/20 12:22:58;;;;;;;0.20;0.20;;;22.60;99.90;;;;;;5033172;28;20045;-90
2022/08/20 12:25:24;;;;;;;0.20;0.20;;;22.50;99.90;;;;;;5014654;28;20077;-87
2022/08/20 12:27:50;;;;;;;0.20;0.20;;;22.40;99.90;;;;;;5014343;28;20065;-86
2022/08/20 12:30:18;;;;;;;0.10;0.10;;;22.40;99.90;;;;;;5014824;28;20041;-86
2022/08/20 12:32:47;;;;;;;0.20;0.20;;;22.30;99.90;;;;;;5032666;28;20045;-85
2022/08/20 12:35:15;;;;;;;0.20;0.20;;;22.40;99.90;;;;;;5032487;28;20041;-86
2022/08/20 12:37:42;;;;;;;0.20;0.20;;;22.50;99.90;;;;;;5015210;28;20046;-88
2022/08/20 12:40:18;;;;;;;0.20;0.20;;;22.70;99.90;;;;;;5013237;28;20987;-86
2022/08/20 12:42:44;;;;;;;0.20;0.20;;;23.00;99.90;;;;;;5014988;28;20053;-87
2022/08/20 12:45:10;;;;;;;0.20;0.20;;;23.20;99.90;;;;;;5014744;28;20041;-89
2022/08/20 12:47:38;;;;;;;0.20;0.20;;;23.40;99.90;;;;;;5016369;28;20133;-91
2022/08/20 12:50:26;;;;;;;0.20;0.20;;;23.50;99.90;;;;;;5036562;28;20041;-86
2022/08/20 12:52:51;;;;;;;0.20;0.20;;;23.50;99.90;;;;;;5019130;28;20041;-85
2022/08/20 12:55:18;;;;;;;0.20;0.20;;;23.50;99.90;;;;;;5034339;28;20409;-86
2022/08/20 12:57:48;;;;;;;0.20;0.20;;;23.60;99.90;;;;;;5038503;28;20042;-90
2022/08/20 13:00:20;;;;;;;0.20;0.20;;;23.60;99.80;;;;;;5019747;28;20073;-87